Bacots, Mississippi
Current Conditions -  °F | °C
As of 9:53 PM on Thursday 20 Nov 2014 (Local Time) from KMCB Reporting Station
Clear Clear  
Wind Chill: 44°   Ceiling: Unl
Heat Index: 48°   Visibility: 10mi
Dew Point: 43°   Wind: 8mph
Humidity: 83%   Direction: 170°S
Pressure: 30.22"   Gusts: NA
Location:  31.1693°N, 90.3678°W
Report Text: KMCB 210353Z AUTO 17007KT 10SM CLR 09/06 A3022 RMK AO2 SLP231 T00890061
Loading
Personal Weather Stations






























Interactive Weather Map New forecast layout! Learn more

10-Day Weather Forecast

Advertisements
Track Severe Weather on mobile